createdAt,value
2023-03-18T00:00:30.846Z,-40.00
2023-03-18T00:01:30.510Z,-40.00
2023-03-18T00:02:30.488Z,-39.96
2023-03-18T00:03:30.588Z,-40.00
2023-03-18T00:04:30.458Z,7.32
2023-03-18T00:05:30.478Z,-40.00
2023-03-18T00:06:30.435Z,-40.00
2023-03-18T00:07:30.409Z,-40.00
2023-03-18T00:08:30.387Z,-40.00
2023-03-18T00:09:30.390Z,-40.00
2023-03-18T00:10:30.701Z,-40.00
2023-03-18T00:11:30.395Z,-40.00
2023-03-18T00:12:30.368Z,-40.00
2023-03-18T00:13:30.352Z,-40.00
2023-03-18T00:14:30.341Z,-40.00
2023-03-18T00:15:30.350Z,-40.00
2023-03-18T00:16:30.389Z,-40.00
2023-03-18T00:17:30.414Z,7.17
2023-03-18T00:18:30.302Z,-40.00
2023-03-18T00:19:30.293Z,-40.00
2023-03-18T00:20:30.611Z,7.33
2023-03-18T00:21:30.279Z,-40.00
2023-03-18T00:22:30.242Z,-40.00
2023-03-18T00:23:30.233Z,7.33
2023-03-18T00:24:30.266Z,7.33
2023-03-18T00:25:30.235Z,-40.00
2023-03-18T00:26:30.200Z,-40.00
2023-03-18T00:27:30.209Z,-40.00
2023-03-18T00:28:30.182Z,-40.00
2023-03-18T00:29:30.172Z,7.80
2023-03-18T00:30:30.638Z,-40.00
2023-03-18T00:31:30.196Z,7.63
2023-03-18T00:32:30.170Z,-39.96
2023-03-18T00:33:30.143Z,7.53
2023-03-18T00:34:30.114Z,-40.00
2023-03-18T00:35:30.304Z,-40.00
2023-03-18T00:36:30.098Z,7.50
2023-03-18T00:37:30.094Z,-40.00
2023-03-18T00:38:30.060Z,7.39
2023-03-18T00:39:30.057Z,-40.00
2023-03-18T00:40:30.288Z,7.36
2023-03-18T00:41:30.022Z,-40.00
2023-03-18T00:42:30.052Z,-40.00
2023-03-18T00:43:30.014Z,-40.00
2023-03-18T00:44:30.018Z,7.54
2023-03-18T00:45:30.048Z,-40.00
2023-03-18T00:46:30.051Z,7.77
2023-03-18T00:47:29.967Z,7.75
2023-03-18T00:48:29.957Z,-40.00
2023-03-18T00:49:29.967Z,7.56
2023-03-18T00:50:30.191Z,-34.85
2023-03-18T00:51:29.927Z,-40.00
2023-03-18T00:52:32.097Z,-40.00
2023-03-18T00:53:29.911Z,7.43
2023-03-18T00:54:29.913Z,7.56
2023-03-18T00:55:29.876Z,7.50
2023-03-18T00:56:29.928Z,7.47
2023-03-18T00:57:29.861Z,-40.00
2023-03-18T00:58:29.851Z,7.60
2023-03-18T00:59:29.848Z,-40.00
2023-03-18T01:00:30.230Z,-39.36
2023-03-18T01:01:29.822Z,-40.00
2023-03-18T01:02:29.889Z,-40.00
2023-03-18T01:03:29.790Z,7.35
2023-03-18T01:04:29.829Z,-40.00
2023-03-18T01:05:29.770Z,-40.00
2023-03-18T01:06:29.748Z,7.31
2023-03-18T01:07:29.713Z,-40.00
2023-03-18T01:08:29.725Z,-40.00
2023-03-18T01:09:29.755Z,-40.00
2023-03-18T01:10:29.927Z,-40.00
2023-03-18T01:11:29.695Z,7.43
2023-03-18T01:12:29.711Z,-40.00
2023-03-18T01:13:29.693Z,-40.00
2023-03-18T01:14:29.695Z,-40.00
2023-03-18T01:15:29.648Z,-40.00
2023-03-18T01:16:29.778Z,-40.00
2023-03-18T01:17:29.631Z,-40.00
2023-03-18T01:18:29.618Z,-40.00
2023-03-18T01:19:29.672Z,-40.00
2023-03-18T01:20:29.910Z,-40.00
2023-03-18T01:21:29.640Z,-40.00
2023-03-18T01:22:29.589Z,-40.00
2023-03-18T01:23:29.580Z,-40.00
2023-03-18T01:24:29.643Z,-40.00
2023-03-18T01:25:29.540Z,-40.00
2023-03-18T01:26:29.560Z,-40.00
2023-03-18T01:27:29.514Z,-39.96
2023-03-18T01:28:29.504Z,-40.00
2023-03-18T01:29:29.541Z,-40.00
2023-03-18T01:30:29.843Z,-40.00
2023-03-18T01:31:29.488Z,-40.00
2023-03-18T01:32:29.516Z,-40.00
2023-03-18T01:33:29.458Z,-39.96
2023-03-18T01:34:29.576Z,-40.00
2023-03-18T01:35:29.439Z,-40.00
2023-03-18T01:36:29.409Z,-40.00
2023-03-18T01:37:29.442Z,-40.00
2023-03-18T01:38:29.380Z,-40.00
2023-03-18T01:39:29.413Z,-40.00
2023-03-18T01:40:29.542Z,-40.00
2023-03-18T01:41:29.354Z,-40.00
2023-03-18T01:42:29.351Z,-40.00
2023-03-18T01:43:29.334Z,-40.00
2023-03-18T01:44:29.355Z,-40.00
2023-03-18T01:45:29.345Z,-40.00
2023-03-18T01:46:29.291Z,-40.00
2023-03-18T01:47:29.305Z,-40.00
2023-03-18T01:48:29.263Z,-40.00
2023-03-18T01:49:29.312Z,-40.00
2023-03-18T01:50:29.618Z,-39.96
2023-03-18T01:51:29.265Z,-40.00
2023-03-18T01:52:29.220Z,-40.00
2023-03-18T01:53:29.202Z,-39.96
2023-03-18T01:54:29.308Z,-40.00
2023-03-18T01:55:29.191Z,-40.00
2023-03-18T01:56:29.192Z,-39.96
2023-03-18T01:57:29.182Z,-40.00
2023-03-18T01:58:29.175Z,1.25
2023-03-18T01:59:29.227Z,-40.00
2023-03-18T02:00:29.242Z,-39.96
2023-03-18T02:01:29.194Z,-40.00
2023-03-18T02:02:29.113Z,-40.00
2023-03-18T02:03:29.149Z,-40.00
2023-03-18T02:04:29.149Z,-40.00
2023-03-18T02:05:31.048Z,7.83
2023-03-18T02:06:29.078Z,-40.00
2023-03-18T02:07:29.064Z,-40.00
2023-03-18T02:08:29.060Z,-40.00
2023-03-18T02:09:29.071Z,-40.00
2023-03-18T02:10:29.064Z,-40.00
2023-03-18T02:11:29.841Z,-40.00
2023-03-18T02:12:29.035Z,-40.00
2023-03-18T02:13:28.992Z,-40.00
2023-03-18T02:14:29.046Z,7.75
2023-03-18T02:16:04.845Z,-40.00
2023-03-18T02:16:29.036Z,-40.00
2023-03-18T02:17:28.941Z,-40.00
2023-03-18T02:18:29.071Z,-40.00
2023-03-18T02:19:28.923Z,7.91
2023-03-18T02:20:29.044Z,-40.00
2023-03-18T02:21:29.005Z,-40.00
2023-03-18T02:22:28.918Z,-40.00
2023-03-18T02:23:28.947Z,-40.00
2023-03-18T02:24:28.904Z,-40.00
2023-03-18T02:25:28.869Z,-40.00
2023-03-18T02:26:28.910Z,8.16
2023-03-18T02:27:28.855Z,-40.00
2023-03-18T02:28:28.895Z,42.50
2023-03-18T02:29:28.829Z,-40.00
2023-03-18T02:30:28.833Z,8.24
2023-03-18T02:31:28.791Z,-40.00
2023-03-18T02:32:28.826Z,-40.00
2023-03-18T02:33:28.796Z,-40.00
2023-03-18T02:34:28.763Z,-40.00
2023-03-18T02:35:28.791Z,-40.00
2023-03-18T02:36:28.730Z,-40.00
2023-03-18T02:37:28.736Z,-40.00
2023-03-18T02:38:28.732Z,-39.96
2023-03-18T02:39:28.724Z,-40.00
2023-03-18T02:40:28.698Z,-39.96
2023-03-18T02:41:28.757Z,-40.00
2023-03-18T02:42:28.688Z,-40.00
2023-03-18T02:43:28.699Z,-40.00
2023-03-18T02:44:28.682Z,-40.00
2023-03-18T02:45:28.643Z,-39.36
2023-03-18T02:46:28.715Z,-40.00
2023-03-18T02:47:28.648Z,-40.00
2023-03-18T02:48:28.688Z,-40.00
2023-03-18T02:49:28.605Z,-40.00
2023-03-18T02:50:28.597Z,-40.00
2023-03-18T02:51:28.582Z,-40.00
2023-03-18T02:52:28.569Z,-40.00
2023-03-18T02:53:28.583Z,-40.00
2023-03-18T02:54:28.667Z,-40.00
2023-03-18T02:55:28.552Z,-39.96
2023-03-18T02:56:28.537Z,-40.00
2023-03-18T02:57:28.532Z,-39.96
2023-03-18T02:58:28.542Z,-40.00
2023-03-18T02:59:28.493Z,-40.00
2023-03-18T03:00:28.489Z,-40.00
2023-03-18T03:01:28.514Z,-40.00
2023-03-18T03:02:28.559Z,-40.00
2023-03-18T03:03:28.516Z,-40.00
2023-03-18T03:04:28.445Z,-39.96
2023-03-18T03:05:28.418Z,-39.96
2023-03-18T03:06:28.416Z,-40.00
2023-03-18T03:07:28.382Z,-40.00
2023-03-18T03:08:28.420Z,-40.00
2023-03-18T03:09:28.375Z,-40.00
2023-03-18T03:10:28.390Z,-40.00
2023-03-18T03:11:28.364Z,-40.00
2023-03-18T03:12:28.332Z,-40.00
2023-03-18T03:13:28.375Z,-40.00
2023-03-18T03:14:28.321Z,-40.00
2023-03-18T03:15:28.602Z,-40.00
2023-03-18T03:16:28.343Z,-40.00
2023-03-18T03:17:28.300Z,-40.00
2023-03-18T03:18:28.337Z,-40.00
2023-03-18T03:19:28.276Z,-40.00
2023-03-18T03:20:28.282Z,-40.00
2023-03-18T03:21:28.258Z,-40.00
2023-03-18T03:22:28.251Z,-39.96
2023-03-18T03:23:28.264Z,-39.96
2023-03-18T03:24:28.237Z,-40.00
2023-03-18T03:25:28.198Z,-40.00
2023-03-18T03:26:28.199Z,-40.00
2023-03-18T03:27:28.172Z,-40.00
2023-03-18T03:28:28.243Z,-40.00
2023-03-18T03:29:28.157Z,-40.00
2023-03-18T03:30:28.174Z,-40.00
2023-03-18T03:31:28.160Z,-40.00
2023-03-18T03:32:28.155Z,-40.00
2023-03-18T03:33:28.212Z,-40.00
2023-03-18T03:34:28.117Z,-40.00
2023-03-18T03:35:28.103Z,-40.00
2023-03-18T03:36:28.079Z,-39.96
2023-03-18T03:37:28.076Z,-40.00
2023-03-18T03:38:28.078Z,-40.00
2023-03-18T03:39:28.064Z,-40.00
2023-03-18T03:40:28.144Z,-40.00
2023-03-18T03:41:28.043Z,-40.00
2023-03-18T03:42:28.031Z,-39.96
2023-03-18T03:43:28.053Z,-40.00
2023-03-18T03:44:28.038Z,-39.96
2023-03-18T03:45:28.003Z,-40.00
2023-03-18T03:46:28.096Z,-40.00
2023-03-18T03:47:27.976Z,-40.00
2023-03-18T03:48:28.005Z,-40.00
2023-03-18T03:49:27.953Z,-40.00
2023-03-18T03:50:27.928Z,-40.00
2023-03-18T03:51:27.929Z,-40.00
2023-03-18T03:52:27.921Z,-40.00
2023-03-18T03:53:27.962Z,-39.96
2023-03-18T03:54:27.894Z,1.25
2023-03-18T03:55:27.876Z,-40.00
2023-03-18T03:56:27.874Z,-39.68
2023-03-18T03:57:27.861Z,-40.00
2023-03-18T03:58:27.886Z,-39.92
2023-03-18T03:59:27.839Z,-39.96
2023-03-18T04:00:27.846Z,-39.96
2023-03-18T04:01:27.795Z,-40.00
2023-03-18T04:02:27.855Z,-39.96
2023-03-18T04:03:27.839Z,-40.00
2023-03-18T04:04:27.832Z,-40.00
2023-03-18T04:05:27.771Z,-40.00
2023-03-18T04:06:27.759Z,-40.00
2023-03-18T04:07:27.761Z,-40.00
2023-03-18T04:08:27.748Z,-40.00
2023-03-18T04:09:27.720Z,-19.38
2023-03-18T04:10:27.695Z,-34.85
2023-03-18T04:11:27.701Z,-39.96
2023-03-18T04:12:27.686Z,-39.96
2023-03-18T04:13:27.731Z,-38.71
2023-03-18T04:14:27.677Z,-39.68
2023-03-18T04:15:27.656Z,-39.96
2023-03-18T04:16:27.686Z,-39.96
2023-03-18T04:17:27.652Z,-34.85
2023-03-18T04:18:27.670Z,-39.98
2023-03-18T04:19:27.595Z,-40.00
2023-03-18T04:20:27.596Z,-38.71
2023-03-18T04:21:27.610Z,-39.36
2023-03-18T04:22:27.600Z,-34.85
2023-03-18T04:23:27.605Z,-39.96
2023-03-18T04:24:27.598Z,-38.71
2023-03-18T04:25:27.538Z,-39.98
2023-03-18T04:26:27.562Z,-40.00
2023-03-18T04:27:27.519Z,-40.00
2023-03-18T04:28:27.544Z,-40.00
2023-03-18T04:29:27.496Z,-40.00
2023-03-18T04:30:27.531Z,-40.00
2023-03-18T04:31:27.517Z,-40.00
2023-03-18T04:32:27.463Z,-39.96
2023-03-18T04:33:27.497Z,-39.96
2023-03-18T04:34:27.440Z,-40.00
2023-03-18T04:35:27.426Z,-39.96
2023-03-18T04:36:27.417Z,-40.00
2023-03-18T04:37:27.395Z,-39.96
2023-03-18T04:38:27.412Z,-39.96
2023-03-18T04:39:27.365Z,-40.00
2023-03-18T04:40:27.387Z,-40.00
2023-03-18T04:41:27.362Z,-40.00
2023-03-18T04:42:27.366Z,-39.96
2023-03-18T04:43:27.377Z,-40.00
2023-03-18T04:44:27.339Z,-39.96
2023-03-18T04:45:27.321Z,-39.96
2023-03-18T04:46:27.346Z,-40.00
2023-03-18T04:47:27.304Z,-39.99
2023-03-18T04:48:27.341Z,-40.00
2023-03-18T04:49:27.291Z,-39.92
2023-03-18T04:50:27.263Z,-39.98
2023-03-18T04:51:27.269Z,-39.96
2023-03-18T04:52:27.248Z,-39.98
2023-03-18T04:53:27.282Z,-40.00
2023-03-18T04:54:27.212Z,-40.00
2023-03-18T04:55:27.200Z,-39.96
2023-03-18T04:56:27.192Z,-40.00
2023-03-18T04:57:27.219Z,-40.00
2023-03-18T04:58:27.222Z,-40.00
2023-03-18T04:59:27.165Z,-40.00
2023-03-18T05:00:27.150Z,-39.98
2023-03-18T05:01:27.146Z,-40.00
2023-03-18T05:02:27.112Z,-40.00
2023-03-18T05:03:27.150Z,-40.00
2023-03-18T05:04:27.109Z,-40.00
2023-03-18T05:05:27.116Z,-39.96
2023-03-18T05:06:27.089Z,-40.00
2023-03-18T05:07:27.052Z,-40.00
2023-03-18T05:08:27.091Z,-40.00
2023-03-18T05:09:27.034Z,-40.00
2023-03-18T05:10:27.032Z,-40.00
2023-03-18T05:11:27.029Z,-40.00
2023-03-18T05:12:27.025Z,-40.00
2023-03-18T05:13:27.060Z,-40.00
2023-03-18T05:14:27.022Z,-40.00
2023-03-18T05:15:26.990Z,-40.00
2023-03-18T05:16:27.076Z,-40.00
2023-03-18T05:17:26.970Z,-40.00
2023-03-18T05:18:26.974Z,-40.00
2023-03-18T05:19:26.953Z,-40.00
2023-03-18T05:20:26.938Z,-40.00
2023-03-18T05:21:27.919Z,-40.00
2023-03-18T05:22:26.909Z,-40.00
2023-03-18T05:23:26.938Z,-40.00
2023-03-18T05:24:26.879Z,-39.96
2023-03-18T05:25:26.875Z,-40.00
2023-03-18T05:26:26.864Z,-40.00
2023-03-18T05:27:26.897Z,-39.92
2023-03-18T05:28:26.876Z,-39.96
2023-03-18T05:29:26.818Z,-39.96
2023-03-18T05:30:26.815Z,-40.00
2023-03-18T05:31:26.888Z,-40.00
2023-03-18T05:32:26.812Z,-40.00
2023-03-18T05:33:26.829Z,-40.00
2023-03-18T05:34:26.772Z,-39.36
2023-03-18T05:35:26.777Z,-40.00
2023-03-18T05:36:26.748Z,-40.00
2023-03-18T05:37:26.725Z,-39.96
2023-03-18T05:38:26.743Z,-40.00
2023-03-18T05:39:26.690Z,-40.00
2023-03-18T05:40:26.700Z,-39.96
2023-03-18T05:41:26.731Z,-38.71
2023-03-18T05:42:26.692Z,-40.00
2023-03-18T05:43:26.706Z,-40.00
2023-03-18T05:44:26.665Z,-40.00
2023-03-18T05:45:26.629Z,-40.00
2023-03-18T05:46:26.661Z,-40.00
2023-03-18T05:47:26.626Z,-40.00
2023-03-18T05:48:26.625Z,-39.96
2023-03-18T05:49:26.603Z,-39.96
2023-03-18T05:50:26.577Z,-40.00
2023-03-18T05:51:26.594Z,-39.96
2023-03-18T05:52:26.553Z,-39.36
2023-03-18T05:53:26.577Z,-29.69
2023-03-18T05:54:26.536Z,-39.96
2023-03-18T05:55:26.529Z,-39.96
2023-03-18T05:56:26.517Z,125.00
2023-03-18T05:57:26.516Z,-39.96
2023-03-18T05:58:26.541Z,-39.96
2023-03-18T05:59:26.480Z,-39.96
2023-03-18T06:00:26.478Z,-39.96
2023-03-18T06:01:26.469Z,-39.36
2023-03-18T06:02:26.473Z,-40.00
2023-03-18T06:03:26.472Z,-40.00
2023-03-18T06:04:26.435Z,-39.96
2023-03-18T06:05:26.415Z,-40.00
2023-03-18T06:06:26.407Z,-39.96
2023-03-18T06:07:26.377Z,42.50
2023-03-18T06:08:26.385Z,-40.00
2023-03-18T06:09:26.351Z,-40.00
2023-03-18T06:10:26.353Z,8.66
2023-03-18T06:11:26.361Z,-40.00
2023-03-18T06:12:26.335Z,-40.00
2023-03-18T06:13:26.355Z,-40.00
2023-03-18T06:14:26.337Z,-40.00
2023-03-18T06:15:26.307Z,-40.00
2023-03-18T06:16:26.329Z,-40.00
2023-03-18T06:17:26.276Z,-39.96
2023-03-18T06:18:26.288Z,-40.00
2023-03-18T06:19:26.286Z,-39.84
2023-03-18T06:20:26.349Z,-39.96
2023-03-18T06:21:26.204Z,-40.00
2023-03-18T06:22:26.214Z,-40.00
2023-03-18T06:23:26.251Z,-40.00
2023-03-18T06:24:26.197Z,-40.00
2023-03-18T06:25:26.209Z,-39.96
2023-03-18T06:26:26.164Z,-39.96
2023-03-18T06:27:26.186Z,-40.00
2023-03-18T06:28:26.176Z,-40.00
2023-03-18T06:29:26.125Z,-40.00
2023-03-18T06:30:26.148Z,-40.00
2023-03-18T06:31:26.164Z,-39.96
2023-03-18T06:32:26.110Z,-40.00
2023-03-18T06:33:26.143Z,-39.36
2023-03-18T06:34:26.104Z,-39.68
2023-03-18T06:35:26.197Z,-29.69
2023-03-18T06:36:26.202Z,-40.00
2023-03-18T06:37:26.044Z,-37.42
2023-03-18T06:38:26.072Z,-39.99
2023-03-18T06:39:26.023Z,-39.96
2023-03-18T06:40:26.032Z,-40.00
2023-03-18T06:41:26.011Z,-40.00
2023-03-18T06:42:26.008Z,-40.00
2023-03-18T06:43:26.052Z,-40.00
2023-03-18T06:44:25.958Z,-40.00
2023-03-18T06:45:25.944Z,-40.00
2023-03-18T06:46:25.997Z,9.44
2023-03-18T06:47:25.950Z,9.47
2023-03-18T06:48:25.969Z,9.50
2023-03-18T06:49:25.945Z,9.51
2023-03-18T06:50:25.886Z,9.69
2023-03-18T06:51:25.911Z,9.99
2023-03-18T06:52:25.879Z,10.23
2023-03-18T06:53:25.912Z,10.31
2023-03-18T06:54:25.853Z,10.42
2023-03-18T06:55:25.876Z,10.44
2023-03-18T06:56:25.837Z,10.35
2023-03-18T06:57:25.817Z,10.69
2023-03-18T06:58:25.850Z,11.05
2023-03-18T06:59:25.810Z,11.10
2023-03-18T07:00:25.844Z,10.78
2023-03-18T07:01:25.839Z,10.75
2023-03-18T07:02:25.753Z,10.57
2023-03-18T07:03:25.803Z,10.48
2023-03-18T07:04:25.755Z,10.26
2023-03-18T07:05:25.736Z,10.12
2023-03-18T07:06:25.733Z,10.15
2023-03-18T07:07:25.707Z,10.35
2023-03-18T07:08:25.743Z,10.74
2023-03-18T07:09:25.661Z,11.00
2023-03-18T07:10:25.678Z,11.08
2023-03-18T07:11:25.692Z,11.41
2023-03-18T07:12:25.669Z,11.47
2023-03-18T07:13:25.691Z,11.87
2023-03-18T07:14:25.618Z,12.09
2023-03-18T07:15:25.625Z,12.17
2023-03-18T07:16:25.608Z,12.46
2023-03-18T07:17:25.626Z,13.03
2023-03-18T07:18:25.646Z,13.70
2023-03-18T07:19:25.577Z,13.95
2023-03-18T07:20:25.576Z,14.37
2023-03-18T07:21:25.574Z,13.46
2023-03-18T07:22:25.539Z,12.95
2023-03-18T07:23:25.560Z,12.90
2023-03-18T07:24:25.520Z,12.94
2023-03-18T07:25:25.516Z,13.09
2023-03-18T07:26:25.502Z,13.41
2023-03-18T07:27:25.489Z,13.70
2023-03-18T07:28:25.511Z,13.72
2023-03-18T07:29:25.453Z,13.63
2023-03-18T07:30:25.422Z,13.81
2023-03-18T07:31:25.491Z,13.59
2023-03-18T07:32:25.416Z,13.20
2023-03-18T07:33:25.452Z,13.56
2023-03-18T07:34:25.394Z,13.23
2023-03-18T07:35:25.411Z,12.83
2023-03-18T07:36:25.379Z,12.83
2023-03-18T07:37:25.355Z,12.85
2023-03-18T07:38:25.397Z,12.43
2023-03-18T07:39:25.341Z,12.61
2023-03-18T07:40:25.362Z,12.78
2023-03-18T07:41:25.358Z,12.58
2023-03-18T07:42:25.329Z,12.67
2023-03-18T07:43:25.322Z,12.68
2023-03-18T07:44:25.277Z,12.86
2023-03-18T07:45:25.272Z,12.83
2023-03-18T07:46:25.294Z,12.83
2023-03-18T07:47:25.256Z,12.80
2023-03-18T07:48:25.273Z,12.78
2023-03-18T07:49:25.236Z,12.82
2023-03-18T07:50:25.227Z,12.87
2023-03-18T07:51:25.215Z,12.94
2023-03-18T07:52:25.192Z,12.73
2023-03-18T07:53:25.240Z,12.62
2023-03-18T07:54:25.175Z,12.79
2023-03-18T07:55:25.167Z,12.75
2023-03-18T07:56:25.176Z,12.78
2023-03-18T07:57:25.228Z,12.50
2023-03-18T07:58:25.162Z,12.42
2023-03-18T07:59:25.129Z,12.54
2023-03-18T08:00:25.105Z,12.40
2023-03-18T08:01:25.118Z,12.37
2023-03-18T08:02:25.115Z,12.03
2023-03-18T08:03:25.116Z,12.09
2023-03-18T08:04:25.262Z,12.22
2023-03-18T08:05:25.067Z,12.22
2023-03-18T08:06:25.058Z,12.10
2023-03-18T08:07:25.038Z,12.21
2023-03-18T08:08:25.024Z,12.40
2023-03-18T08:09:24.998Z,12.22
2023-03-18T08:10:25.010Z,12.42
2023-03-18T08:11:24.991Z,12.61
2023-03-18T08:12:24.998Z,12.79
2023-03-18T08:13:25.022Z,12.76
2023-03-18T08:14:24.966Z,12.78
2023-03-18T08:15:24.964Z,12.90
2023-03-18T08:16:25.142Z,12.86
2023-03-18T08:17:24.923Z,12.61
2023-03-18T08:18:24.958Z,12.72
2023-03-18T08:19:24.896Z,12.72
2023-03-18T08:20:24.900Z,12.90
2023-03-18T08:21:24.899Z,12.94
2023-03-18T08:22:24.860Z,12.79
2023-03-18T08:23:24.901Z,12.72
2023-03-18T08:24:24.865Z,12.68
2023-03-18T08:25:24.880Z,12.93
2023-03-18T08:26:24.843Z,13.11
2023-03-18T08:27:24.873Z,13.09
2023-03-18T08:28:24.828Z,12.80
2023-03-18T08:29:24.791Z,12.83
2023-03-18T08:30:24.793Z,12.90
2023-03-18T08:31:24.788Z,12.97
2023-03-18T08:32:24.762Z,12.68
2023-03-18T08:33:24.812Z,12.61
2023-03-18T08:34:24.710Z,12.58
2023-03-18T08:35:24.730Z,12.60
2023-03-18T08:36:24.695Z,13.12
2023-03-18T08:37:24.716Z,13.18
2023-03-18T08:38:24.724Z,13.38
2023-03-18T08:39:24.650Z,13.20
2023-03-18T08:40:24.665Z,12.86
2023-03-18T08:41:24.648Z,13.00
2023-03-18T08:42:24.680Z,12.98
2023-03-18T08:43:24.766Z,12.83
2023-03-18T08:44:24.631Z,12.90
2023-03-18T08:45:24.594Z,12.97
2023-03-18T08:46:24.654Z,12.90
2023-03-18T08:47:24.590Z,12.65
2023-03-18T08:48:24.604Z,12.58
2023-03-18T08:49:24.567Z,12.43
2023-03-18T08:50:24.540Z,12.61
2023-03-18T08:51:24.560Z,12.97
2023-03-18T08:52:24.538Z,13.04
2023-03-18T08:53:24.560Z,13.15
2023-03-18T08:54:24.495Z,13.11
2023-03-18T08:55:24.495Z,12.98
2023-03-18T08:56:24.569Z,13.08
2023-03-18T08:57:24.474Z,13.12
2023-03-18T08:58:24.487Z,13.46
2023-03-18T08:59:24.449Z,13.46
2023-03-18T09:00:24.451Z,13.38
2023-03-18T09:01:24.506Z,13.25
2023-03-18T09:02:24.436Z,13.39
2023-03-18T09:03:24.512Z,13.41
2023-03-18T09:04:24.390Z,13.33
2023-03-18T09:05:24.396Z,13.28
2023-03-18T09:06:24.362Z,13.19
2023-03-18T09:07:24.374Z,13.19
2023-03-18T09:08:24.373Z,13.08
2023-03-18T09:09:31.008Z,13.09
2023-03-18T09:10:25.329Z,13.09
2023-03-18T09:11:24.320Z,13.27
2023-03-18T09:12:24.315Z,13.57
2023-03-18T09:13:24.370Z,13.72
2023-03-18T09:14:24.316Z,13.85
2023-03-18T09:15:24.257Z,13.77
2023-03-18T09:16:24.273Z,13.72
2023-03-18T09:17:35.895Z,13.92
2023-03-18T09:18:25.282Z,13.89
2023-03-18T09:19:24.214Z,14.03
2023-03-18T09:20:24.214Z,14.12
2023-03-18T09:21:24.212Z,14.11
2023-03-18T09:22:24.184Z,14.33
2023-03-18T09:23:24.207Z,14.79
2023-03-18T09:24:24.215Z,15.21
2023-03-18T09:25:24.179Z,15.36
2023-03-18T09:26:24.166Z,15.22
2023-03-18T09:27:24.149Z,15.22
2023-03-18T09:28:24.150Z,14.81
2023-03-18T09:29:24.115Z,14.55
2023-03-18T09:30:24.160Z,14.44
2023-03-18T09:31:24.079Z,14.69
2023-03-18T09:32:24.083Z,14.60
2023-03-18T09:33:24.128Z,14.96
2023-03-18T09:34:24.089Z,15.21
2023-03-18T09:35:24.057Z,14.85
2023-03-18T09:36:24.041Z,15.06
2023-03-18T09:37:24.013Z,15.10
2023-03-18T09:38:24.362Z,14.89
2023-03-18T09:39:24.009Z,15.36
2023-03-18T09:40:23.984Z,15.64
2023-03-18T09:41:23.995Z,15.76
2023-03-18T09:42:23.964Z,15.64
2023-03-18T09:43:23.982Z,15.61
2023-03-18T09:44:23.933Z,15.11
2023-03-18T09:45:23.924Z,14.91
2023-03-18T09:46:24.035Z,14.84
2023-03-18T09:47:24.036Z,15.10
2023-03-18T09:48:23.930Z,15.51
2023-03-18T09:49:23.860Z,15.65
2023-03-18T09:50:23.853Z,15.65
2023-03-18T09:51:23.939Z,15.25
2023-03-18T09:52:23.868Z,15.15
2023-03-18T09:53:23.864Z,15.18
2023-03-18T09:54:23.827Z,15.04
2023-03-18T09:55:23.846Z,15.06
2023-03-18T09:56:23.804Z,14.97
2023-03-18T09:57:23.780Z,14.53
2023-03-18T09:58:23.826Z,14.66
2023-03-18T09:59:23.851Z,14.68
2023-03-18T10:00:23.846Z,14.77
2023-03-18T10:01:23.825Z,14.84
2023-03-18T10:02:23.737Z,14.92
2023-03-18T10:03:23.784Z,14.66
2023-03-18T10:04:23.765Z,14.88
2023-03-18T10:05:23.692Z,14.78
2023-03-18T10:06:23.692Z,14.79
2023-03-18T10:07:23.675Z,14.99
2023-03-18T10:08:23.728Z,15.04
2023-03-18T10:09:23.673Z,15.22
2023-03-18T10:10:23.650Z,15.39
2023-03-18T10:11:23.631Z,15.46
2023-03-18T10:12:23.636Z,15.52
2023-03-18T10:13:23.659Z,15.31
2023-03-18T10:14:23.638Z,15.04
2023-03-18T10:15:23.585Z,14.99
2023-03-18T10:16:23.647Z,14.89
2023-03-18T10:17:23.561Z,14.69
2023-03-18T10:18:23.619Z,14.85
2023-03-18T10:19:23.549Z,14.66
2023-03-18T10:20:23.679Z,14.89
2023-03-18T10:21:23.527Z,15.10
2023-03-18T10:22:23.503Z,15.15
2023-03-18T10:23:23.522Z,15.04
2023-03-18T10:24:23.478Z,15.24
2023-03-18T10:25:23.482Z,15.33
2023-03-18T10:26:23.469Z,15.76
2023-03-18T10:27:23.468Z,15.97
2023-03-18T10:28:23.497Z,16.00
2023-03-18T10:29:23.462Z,15.79
2023-03-18T10:30:23.456Z,15.83
2023-03-18T10:31:23.648Z,15.92
2023-03-18T10:32:23.414Z,15.79
2023-03-18T10:33:23.438Z,16.32
2023-03-18T10:34:23.385Z,16.78
2023-03-18T10:35:23.358Z,16.78
2023-03-18T10:36:23.360Z,16.39
2023-03-18T10:37:23.347Z,16.13
2023-03-18T10:38:23.367Z,16.60
2023-03-18T10:39:23.370Z,16.93
2023-03-18T10:40:23.411Z,17.04
2023-03-18T10:41:24.912Z,16.96
2023-03-18T10:42:23.273Z,16.75
2023-03-18T10:43:23.330Z,16.28
2023-03-18T10:44:23.272Z,16.04
2023-03-18T10:45:23.257Z,15.92
2023-03-18T10:46:23.448Z,16.00
2023-03-18T10:47:23.414Z,16.21
2023-03-18T10:48:23.263Z,16.21
2023-03-18T10:49:23.228Z,16.39
2023-03-18T10:50:23.208Z,16.04
2023-03-18T10:51:23.197Z,15.90
2023-03-18T10:52:23.177Z,16.12
2023-03-18T10:53:23.217Z,16.15
2023-03-18T10:54:23.186Z,16.13
2023-03-18T10:55:23.143Z,15.94
2023-03-18T10:56:23.128Z,15.73
2023-03-18T10:57:23.178Z,15.77
2023-03-18T10:58:23.160Z,15.76
2023-03-18T10:59:23.107Z,16.12
2023-03-18T11:00:23.128Z,16.50
2023-03-18T11:01:23.398Z,16.72
2023-03-18T11:02:23.167Z,16.96
2023-03-18T11:03:23.118Z,17.12
2023-03-18T11:04:23.054Z,16.64
2023-03-18T11:05:23.028Z,16.35
2023-03-18T11:06:23.002Z,16.17
2023-03-18T11:07:23.008Z,16.24
2023-03-18T11:08:23.016Z,16.43
2023-03-18T11:09:23.002Z,16.17
2023-03-18T11:10:23.151Z,16.21
2023-03-18T11:11:22.957Z,16.42
2023-03-18T11:12:22.949Z,16.53
2023-03-18T11:13:22.982Z,16.74
2023-03-18T11:14:23.001Z,16.89
2023-03-18T11:15:22.925Z,16.50
2023-03-18T11:16:23.051Z,16.33
2023-03-18T11:17:22.872Z,16.13
2023-03-18T11:18:22.898Z,16.46
2023-03-18T11:19:23.368Z,16.43
2023-03-18T11:20:23.025Z,16.54
2023-03-18T11:21:22.840Z,16.50
2023-03-18T11:22:22.891Z,16.68
2023-03-18T11:23:22.965Z,16.99
2023-03-18T11:24:22.862Z,16.87
2023-03-18T11:25:22.796Z,16.81
2023-03-18T11:26:22.782Z,16.29
2023-03-18T11:27:22.818Z,16.02
2023-03-18T11:28:22.811Z,15.97
2023-03-18T11:29:22.761Z,15.83
2023-03-18T11:30:38.046Z,15.97
2023-03-18T11:31:23.747Z,16.09
2023-03-18T11:32:22.764Z,16.39
2023-03-18T11:33:22.859Z,16.53
2023-03-18T11:34:22.696Z,16.83
2023-03-18T11:35:22.709Z,16.74
2023-03-18T11:36:22.669Z,16.91
2023-03-18T11:37:25.438Z,16.60
2023-03-18T11:38:22.717Z,16.24
2023-03-18T11:39:22.659Z,16.16
2023-03-18T11:40:22.634Z,15.91
2023-03-18T11:41:22.663Z,15.98
2023-03-18T11:42:22.646Z,16.21
2023-03-18T11:43:22.632Z,16.01
2023-03-18T11:44:22.582Z,15.94
2023-03-18T11:45:22.601Z,16.04
2023-03-18T11:46:22.598Z,16.02
2023-03-18T11:47:22.529Z,15.88
2023-03-18T11:48:22.557Z,15.68
2023-03-18T11:49:22.535Z,15.82
2023-03-18T11:50:22.533Z,15.94
2023-03-18T11:51:23.723Z,15.90
2023-03-18T11:52:22.518Z,15.84
2023-03-18T11:53:22.540Z,15.84
2023-03-18T11:54:22.505Z,15.97
2023-03-18T11:55:22.450Z,16.08
2023-03-18T11:56:22.459Z,16.23
2023-03-18T11:57:22.459Z,16.26
2023-03-18T11:58:22.477Z,16.31
2023-03-18T11:59:22.462Z,16.46
2023-03-18T12:00:22.439Z,16.09
2023-03-18T12:01:22.365Z,16.08
2023-03-18T12:02:22.411Z,16.26
2023-03-18T12:03:22.425Z,16.31
2023-03-18T12:04:22.356Z,16.51
2023-03-18T12:05:22.406Z,17.04
2023-03-18T12:06:22.377Z,17.27
2023-03-18T12:07:22.330Z,17.30
2023-03-18T12:08:22.360Z,17.34
2023-03-18T12:09:22.327Z,17.49
2023-03-18T12:10:22.321Z,17.51
2023-03-18T12:11:22.295Z,17.45
2023-03-18T12:12:22.286Z,17.41
2023-03-18T12:13:22.291Z,16.97
2023-03-18T12:14:22.257Z,16.86
2023-03-18T12:15:22.214Z,16.91
2023-03-18T12:16:22.325Z,16.75
2023-03-18T12:17:22.222Z,16.86
2023-03-18T12:18:22.249Z,17.08
2023-03-18T12:19:22.231Z,17.34
2023-03-18T12:20:22.193Z,17.34
2023-03-18T12:21:22.172Z,17.38
2023-03-18T12:22:22.179Z,16.96
2023-03-18T12:23:22.177Z,16.53
2023-03-18T12:24:22.178Z,16.50
2023-03-18T12:25:22.120Z,16.50
2023-03-18T12:26:22.138Z,16.60
2023-03-18T12:27:22.095Z,16.39
2023-03-18T12:28:22.149Z,16.13
2023-03-18T12:29:22.088Z,16.12
2023-03-18T12:30:22.073Z,16.13
2023-03-18T12:31:22.102Z,16.23
2023-03-18T12:32:22.080Z,16.38
2023-03-18T12:33:22.082Z,16.43
2023-03-18T12:34:22.024Z,16.53
2023-03-18T12:35:22.052Z,16.51
2023-03-18T12:36:22.013Z,16.43
2023-03-18T12:37:21.987Z,16.32
2023-03-18T12:38:22.021Z,16.28
2023-03-18T12:39:21.970Z,16.28
2023-03-18T12:40:21.976Z,16.39
2023-03-18T12:41:21.956Z,16.47